»·PEaware :: SKY244 KCLM-KFHR

SKY244 :: KCLM-KFHR

FLIGHT INFORMATION

Flight Status: Arrived
Operator:
Sky High Charters
More flights by this operator :: More flights under this callsign
Pilot: Basie S. (26327)
Aircraft: BEECH AIRCRAFT DEBONAIR BONANZA
(BE33)
More flights by this aircraft type
Origin: KCLM Fairchild Intl
United States
Destination: KFHR Friday Harbor
United States
More flights between these airports :: More routes between these airports
Route: WATTR7 WATTR
File this flight plan on PilotEdge
Remarks: SCENARIO 3 SKY HIGH CHARTERS
Altitude:
(Current/Filed)
5,000ft
Speed:
(Current/Filed)
155kts
Departed: 18-Nov-19 01:36 PM
Arrived: 18-Nov-19 02:06 PM
Distance/Time
Traveled:
31nm/0:30
Distance/Time
To Go:
Arrived

Flight Plot

Page will automatically refresh every two minutes.

Flight plan parsing failed; only flown route is shown


Map Options




Map Legend


Flown Route
Filed Route
Departure Airport
Arrival Airport
Navaid (VOR, NDB)
Fix

Horizontal Profiles

Position Reports

Time Latitude Longitude Heading Altitude Ground
Speed
18-Nov-19 13:10 48.116078 -123.491691 16 295ft 0kts
18-Nov-19 13:11 48.116078 -123.491691 16 295ft 0kts
18-Nov-19 13:12 48.116078 -123.491691 16 295ft 0kts
18-Nov-19 13:13 48.116501 -123.492036 316 295ft 4kts
18-Nov-19 13:14 48.116475 -123.489737 104 295ft 12kts
18-Nov-19 13:15 48.115947 -123.486752 103 295ft 2kts
18-Nov-19 13:16 48.115947 -123.486752 103 295ft 2kts
18-Nov-19 13:17 48.115947 -123.486752 103 295ft 2kts
18-Nov-19 13:18 48.115947 -123.486752 103 295ft 2kts
18-Nov-19 13:19 48.115947 -123.486752 103 295ft 2kts
18-Nov-19 13:20 48.115947 -123.486752 103 295ft 2kts
18-Nov-19 13:21 48.115947 -123.486752 103 295ft 2kts
18-Nov-19 13:22 48.115945 -123.486737 103 295ft 0kts
18-Nov-19 13:23 48.115945 -123.486737 103 295ft 0kts
18-Nov-19 13:24 48.115945 -123.486737 103 295ft 0kts
18-Nov-19 13:25 48.115945 -123.486737 103 295ft 0kts
18-Nov-19 13:26 48.115945 -123.486737 103 295ft 0kts
18-Nov-19 13:27 48.115945 -123.486737 103 295ft 0kts
18-Nov-19 13:28 48.115944 -123.486737 103 295ft 0kts
18-Nov-19 13:29 48.115641 -123.487265 250 295ft 6kts
18-Nov-19 13:30 48.115596 -123.487464 66 295ft 0kts
18-Nov-19 13:31 48.115596 -123.487464 66 295ft 0kts
18-Nov-19 13:32 48.115596 -123.487464 66 295ft 0kts
18-Nov-19 13:33 48.115736 -123.486845 61 295ft 8kts
18-Nov-19 13:34 48.115939 -123.486644 19 295ft 0kts
18-Nov-19 13:35 48.118083 -123.494592 284 295ft 91kts
18-Nov-19 13:36 48.127747 -123.534470 314 1096ft 132kts
18-Nov-19 13:37 48.155708 -123.516246 85 1618ft 152kts
18-Nov-19 13:38 48.149539 -123.453260 98 2117ft 156kts
18-Nov-19 13:39 48.146788 -123.388465 91 2616ft 156kts
18-Nov-19 13:40 48.145781 -123.325542 91 3101ft 147kts
18-Nov-19 13:41 48.144894 -123.264938 91 3594ft 145kts
18-Nov-19 13:42 48.143950 -123.204664 91 4091ft 144kts
18-Nov-19 13:43 48.142982 -123.144666 91 4589ft 144kts
18-Nov-19 13:44 48.141987 -123.084623 91 5000ft 149kts
18-Nov-19 13:45 48.140842 -123.018802 91 5001ft 162kts
18-Nov-19 13:46 48.147830 -122.954549 39 4999ft 160kts
18-Nov-19 13:47 48.190477 -122.950325 352 4998ft 157kts
18-Nov-19 13:48 48.233491 -122.958763 349 4997ft 151kts
18-Nov-19 13:49 48.275569 -122.969429 351 4710ft 159kts
18-Nov-19 13:50 48.319462 -122.979590 351 4214ft 160kts
18-Nov-19 13:52 48.363434 -122.989731 351 3804ft 155kts
18-Nov-19 13:53 48.403532 -122.998977 351 3805ft 140kts
18-Nov-19 13:54 48.441330 -123.007740 351 3807ft 136kts
18-Nov-19 13:55 48.478608 -123.016372 351 3807ft 135kts
18-Nov-19 13:56 48.515663 -123.025746 336 3801ft 135kts
18-Nov-19 13:57 48.505727 -123.058832 157 3810ft 132kts
18-Nov-19 13:58 48.476620 -123.020160 174 3398ft 152kts
18-Nov-19 13:59 48.434442 -123.015861 174 3001ft 148kts
18-Nov-19 14:00 48.399818 -122.995538 131 2886ft 141kts
18-Nov-19 14:01 48.368214 -122.964994 209 2376ft 151kts
18-Nov-19 14:02 48.376277 -123.012165 319 2297ft 135kts
18-Nov-19 14:03 48.414648 -123.021383 0 1857ft 148kts
18-Nov-19 14:04 48.456433 -123.022324 358 1364ft 151kts
18-Nov-19 14:05 48.498704 -123.023501 358 864ft 151kts
18-Nov-19 14:06 48.524298 -123.024517 359 116ft 37kts
18-Nov-19 14:07 48.526536 -123.025752 264 116ft 0kts
18-Nov-19 14:08 48.526536 -123.025752 264 116ft 0kts
18-Nov-19 14:09 48.524944 -123.026013 189 116ft 0kts
18-Nov-19 14:10 48.524944 -123.026013 189 116ft 0kts

Navigation Log

Ident Type
Flight plan parsing failed, navigation log unavailable